Sand Key, FL current weather conditions

sailwx.info

Wind from 130 at 15 knots gusting 16

Air temperature 24.8° C
Dewpoint 19.3° C

Last reported at 2014-Dec-21 19:50 UTC.
Time now 2014-Dec-21 21:33 UTC

Location: N 24°28' W 081°53'.
View on Google Maps.

See reports from other nearby stations

  
Tides and Currents Weather Stations Pressure Air Temp Water Temp Dewpoint Dewpoint Depression Visibility Wind Speed Wind Dir Waves Ship Positions
date/time (UTC)wind fromknots sea level pressurealtimeterstation pressurevisibilityair tempwater tempwave heightnotes
2014-Dec-21 19:50 130 15 gusting 16 24.8
2014-Dec-21 18:50 130 14 gusting 16 24.8
2014-Dec-21 17:50 130 13 gusting 14 24.5
2014-Dec-21 16:50 150 12 gusting 15 23.5
2014-Dec-21 15:50 150 18 gusting 20 24.2
2014-Dec-21 14:50 130 15 gusting 16 24.8
2014-Dec-21 13:50 120 14 gusting 15 24.8
2014-Dec-21 12:50 110 11 gusting 13 24.5
2014-Dec-21 11:50 120 12 gusting 13 24.5
2014-Dec-21 10:50 120 11 gusting 13 24.4
2014-Dec-21 09:50 120 12 gusting 14 24.4
2014-Dec-21 08:50 120 12 gusting 14 24.3
2014-Dec-21 07:50 120 12 gusting 14 24.2
2014-Dec-21 06:50 110 14 gusting 16 24.1
2014-Dec-21 05:50 110 15 gusting 16 24.1
2014-Dec-21 04:50 100 13 gusting 15 24.1
2014-Dec-21 03:50 100 14 gusting 16 24.1
2014-Dec-21 02:50 100 11 gusting 12 24.2
2014-Dec-21 01:50 100 10 gusting 11 24.5
2014-Dec-21 00:50 110 9 gusting 11 24.5
2014-Dec-20 22:50 130 9 gusting 11 24.5
2014-Dec-20 21:50 150 10 gusting 11 24.5
2014-Dec-20 20:50 140 12 gusting 14 24.5
2014-Dec-20 19:50 160 12 gusting 13 24.5
2014-Dec-20 18:50 160 12 gusting 13 24.5
2014-Dec-20 17:50 160 13 gusting 15 24.5
2014-Dec-20 16:50 150 12 gusting 14 24.3
2014-Dec-20 15:50 120 13 gusting 15 24.2
2014-Dec-20 14:50 120 14 gusting 16 24.0
2014-Dec-20 13:50 120 12 gusting 14 23.9
2014-Dec-20 12:50 120 13 gusting 15 23.7
2014-Dec-20 11:50 130 12 gusting 14 23.7
2014-Dec-20 10:50 130 10 gusting 12 23.5
2014-Dec-20 09:50 130 12 gusting 14 23.4
2014-Dec-20 08:50 130 11 gusting 13 23.2
2014-Dec-20 07:50 120 12 gusting 14 23.3
2014-Dec-20 06:50 130 13 gusting 16 23.4
2014-Dec-20 05:50 130 12 gusting 14 23.4
2014-Dec-20 04:50 120 14 gusting 16 23.5
2014-Dec-20 03:50 060 11 gusting 12 22.4
2014-Dec-20 02:50 100 12 gusting 14 23.4
2014-Dec-20 01:50 100 12 gusting 14 23.4
2014-Dec-20 00:50 100 12 gusting 13 23.4
2014-Dec-19 22:50 070 12 gusting 14 22.5
2014-Dec-19 21:50 060 11 gusting 12 22.3